Time;durP1;ratioP1;P1;durP2;ratioP2;P2;SDS_P1;SDS_P2;PMS_P1;PMS_P2;Temp;Humidity;BMP_temperature;BMP_pressure;BME280_temperature;BME280_humidity;BME280_pressure;Samples;Min_cycle;Max_cycle;Signal;HPM_P1;HPM_P2
2021/07/01 00:02:12;;;;;;;11.27;5.60;;;14.80;99.90;;;;;;5005005;28;20234;-50
2021/07/01 00:04:40;;;;;;;18.27;5.60;;;14.90;99.90;;;;;;5005557;28;20211;-50
2021/07/01 00:07:06;;;;;;;8.40;5.70;;;14.90;99.90;;;;;;5004867;28;20209;-51
2021/07/01 00:09:33;;;;;;;15.67;7.00;;;14.90;99.90;;;;;;5002906;28;20210;-51
2021/07/01 00:12:00;;;;;;;13.83;5.87;;;14.90;99.90;;;;;;5001126;28;20255;-51
2021/07/01 00:14:27;;;;;;;12.77;5.93;;;14.90;99.90;;;;;;5002243;28;20307;-51
2021/07/01 00:16:55;;;;;;;17.60;5.90;;;15.00;99.90;;;;;;5003194;28;20226;-50
2021/07/01 00:19:22;;;;;;;16.80;5.40;;;14.80;99.90;;;;;;5002885;28;20824;-51
2021/07/01 00:21:50;;;;;;;16.10;6.53;;;14.80;99.90;;;;;;5003576;28;20253;-50
2021/07/01 00:24:16;;;;;;;16.30;6.07;;;14.70;99.90;;;;;;5001420;28;20351;-50
2021/07/01 00:26:43;;;;;;;11.80;5.67;;;14.70;99.90;;;;;;5002907;28;20278;-50
2021/07/01 00:29:10;;;;;;;13.60;5.27;;;14.90;99.90;;;;;;5004683;28;20254;-51
2021/07/01 00:31:37;;;;;;;19.43;6.33;;;15.00;99.90;;;;;;5002779;28;20625;-50
2021/07/01 00:34:04;;;;;;;14.47;6.40;;;14.90;99.90;;;;;;5002453;28;20628;-51
2021/07/01 00:36:31;;;;;;;14.00;5.70;;;14.80;99.90;;;;;;5004569;28;20236;-51
2021/07/01 00:38:58;;;;;;;12.70;5.67;;;14.80;99.90;;;;;;5001617;28;20416;-51
2021/07/01 00:41:25;;;;;;;15.27;6.03;;;14.60;99.90;;;;;;5002673;28;20202;-51
2021/07/01 00:43:52;;;;;;;12.83;5.33;;;14.60;99.90;;;;;;5005050;28;20230;-51
2021/07/01 00:46:19;;;;;;;15.00;6.57;;;14.70;99.90;;;;;;5004750;28;20334;-51
2021/07/01 00:48:46;;;;;;;16.47;6.80;;;14.60;99.90;;;;;;5003133;28;20202;-50
2021/07/01 00:51:13;;;;;;;17.80;6.17;;;14.80;99.90;;;;;;5001718;28;20287;-50
2021/07/01 00:53:40;;;;;;;12.20;6.10;;;14.80;99.90;;;;;;5003308;28;20293;-50
2021/07/01 00:56:09;;;;;;;18.97;7.63;;;14.70;99.90;;;;;;5004404;28;20317;-50
2021/07/01 00:58:39;;;;;;;10.53;5.60;;;14.70;99.90;;;;;;5003326;28;20258;-50
2021/07/01 01:01:06;;;;;;;16.80;5.90;;;14.60;99.90;;;;;;5003762;28;20730;-50
2021/07/01 01:03:35;;;;;;;20.50;7.23;;;14.70;99.90;;;;;;5003908;28;20272;-50
2021/07/01 01:06:04;;;;;;;18.73;6.43;;;14.80;99.90;;;;;;5002410;28;20232;-50
2021/07/01 01:08:31;;;;;;;12.47;6.00;;;14.80;99.90;;;;;;5002224;28;20223;-50
2021/07/01 01:10:58;;;;;;;11.17;5.17;;;14.80;99.90;;;;;;5006085;28;20230;-50
2021/07/01 01:13:26;;;;;;;11.17;5.73;;;14.90;99.90;;;;;;5000789;28;20307;-50
2021/07/01 01:16:02;;;;;;;15.30;6.00;;;14.80;99.90;;;;;;5003356;28;20206;-50
2021/07/01 01:18:30;;;;;;;16.50;6.40;;;14.80;99.90;;;;;;5001472;28;20228;-50
2021/07/01 01:20:59;;;;;;;16.00;6.53;;;14.60;99.90;;;;;;5005495;28;20283;-50
2021/07/01 01:23:26;;;;;;;9.40;5.73;;;14.50;99.90;;;;;;5001828;28;20384;-50
2021/07/01 01:26:04;;;;;;;12.93;5.50;;;14.40;99.90;;;;;;5003727;28;20223;-51
2021/07/01 01:28:31;;;;;;;15.87;5.20;;;14.50;99.90;;;;;;5000809;28;20287;-51
2021/07/01 01:30:58;;;;;;;12.60;5.10;;;14.60;99.90;;;;;;5000554;28;20315;-50
2021/07/01 01:33:25;;;;;;;14.03;5.73;;;14.50;99.90;;;;;;5004268;28;20549;-50
2021/07/01 01:35:52;;;;;;;13.60;4.50;;;14.60;99.90;;;;;;4999007;28;20253;-51
2021/07/01 01:38:20;;;;;;;8.87;4.93;;;14.50;99.90;;;;;;5001722;28;20233;-50
2021/07/01 01:40:48;;;;;;;9.83;5.70;;;14.60;99.90;;;;;;5000051;28;20231;-50
2021/07/01 01:43:17;;;;;;;14.23;4.83;;;14.60;99.90;;;;;;5004070;28;20325;-51
2021/07/01 01:45:45;;;;;;;11.80;4.63;;;14.70;99.90;;;;;;4998989;28;20315;-51
2021/07/01 01:48:13;;;;;;;9.53;4.80;;;14.40;99.90;;;;;;5002467;28;20302;-51
2021/07/01 01:50:41;;;;;;;9.03;4.30;;;14.50;99.90;;;;;;5008139;28;20410;-51
2021/07/01 01:53:09;;;;;;;10.70;4.80;;;14.40;99.90;;;;;;4999316;28;20203;-51
2021/07/01 01:55:37;;;;;;;9.33;4.47;;;14.50;99.90;;;;;;5005387;28;20383;-51
2021/07/01 01:58:04;;;;;;;6.03;4.47;;;14.50;99.90;;;;;;5002700;28;20203;-51
2021/07/01 02:00:30;;;;;;;8.67;4.77;;;14.60;99.90;;;;;;5007587;28;20298;-50
2021/07/01 02:02:58;;;;;;;8.90;4.70;;;14.60;99.90;;;;;;5003897;28;20213;-51
2021/07/01 02:05:26;;;;;;;11.57;4.97;;;14.60;99.90;;;;;;5004814;28;20210;-51
2021/07/01 02:07:53;;;;;;;12.80;4.83;;;14.50;99.90;;;;;;5005338;28;20295;-50
2021/07/01 02:10:25;;;;;;;10.53;4.47;;;14.50;99.90;;;;;;5006808;28;20230;-51
2021/07/01 02:12:53;;;;;;;8.50;4.27;;;14.60;99.90;;;;;;5005554;28;20264;-51
2021/07/01 02:15:22;;;;;;;15.13;5.50;;;14.60;99.90;;;;;;5005916;28;20620;-50
2021/07/01 02:17:50;;;;;;;6.53;4.50;;;14.50;99.90;;;;;;5004945;28;20244;-50
2021/07/01 02:20:20;;;;;;;10.83;5.17;;;14.30;99.90;;;;;;5007879;28;20244;-50
2021/07/01 02:22:48;;;;;;;11.63;4.40;;;14.50;99.90;;;;;;5003574;28;20212;-50
2021/07/01 02:25:15;;;;;;;10.27;5.20;;;14.60;99.90;;;;;;5005906;28;20303;-50
2021/07/01 02:27:43;;;;;;;12.03;5.00;;;14.70;99.90;;;;;;5007400;28;20210;-50
2021/07/01 02:30:14;;;;;;;14.87;5.90;;;14.70;99.90;;;;;;5007689;28;20255;-50
2021/07/01 02:32:40;;;;;;;12.47;5.30;;;14.80;99.90;;;;;;5006061;28;20224;-50
2021/07/01 02:35:27;;;;;;;16.37;5.70;;;14.70;99.90;;;;;;5005751;28;20201;-50
2021/07/01 02:37:54;;;;;;;11.73;6.30;;;14.70;99.90;;;;;;5006663;28;20247;-50
2021/07/01 02:40:21;;;;;;;16.53;5.33;;;14.80;99.90;;;;;;5006711;28;20362;-50
2021/07/01 02:42:47;;;;;;;9.17;4.90;;;14.80;99.90;;;;;;5002237;28;20625;-51
2021/07/01 02:45:14;;;;;;;13.53;5.13;;;14.80;99.90;;;;;;5006781;28;20733;-50
2021/07/01 02:47:41;;;;;;;7.77;4.63;;;14.90;99.90;;;;;;5004773;28;20328;-50
2021/07/01 02:50:09;;;;;;;13.60;5.20;;;14.80;99.90;;;;;;5006241;28;20290;-50
2021/07/01 02:52:37;;;;;;;13.37;5.30;;;14.90;99.90;;;;;;5007511;28;20688;-51
2021/07/01 02:55:06;;;;;;;14.90;4.57;;;14.90;99.90;;;;;;5007301;28;20231;-51
2021/07/01 02:57:35;;;;;;;9.97;5.77;;;14.90;99.90;;;;;;5004508;28;20208;-51
2021/07/01 03:00:06;;;;;;;11.07;5.07;;;14.80;99.90;;;;;;5005959;28;20225;-50
2021/07/01 03:02:33;;;;;;;19.63;6.00;;;14.70;99.90;;;;;;5006468;28;20334;-51
2021/07/01 03:05:00;;;;;;;12.60;5.00;;;14.70;99.90;;;;;;5006742;28;20230;-51
2021/07/01 03:07:26;;;;;;;11.27;5.57;;;14.80;99.90;;;;;;5007547;28;20320;-51
2021/07/01 03:09:53;;;;;;;13.30;5.23;;;14.90;99.90;;;;;;5003142;28;20227;-51
2021/07/01 03:12:20;;;;;;;11.67;5.20;;;14.80;99.90;;;;;;5000646;28;20345;-51
2021/07/01 03:14:47;;;;;;;11.70;5.53;;;14.70;99.90;;;;;;5007495;28;20285;-50
2021/07/01 03:17:14;;;;;;;10.53;4.93;;;14.60;99.90;;;;;;5003010;28;20227;-51
2021/07/01 03:19:40;;;;;;;10.67;5.10;;;14.60;99.90;;;;;;5004995;28;20264;-51
2021/07/01 03:22:07;;;;;;;11.27;4.63;;;14.70;99.90;;;;;;5006548;28;20215;-51
2021/07/01 03:24:34;;;;;;;7.80;5.23;;;14.80;99.90;;;;;;5003056;28;20299;-51
2021/07/01 03:27:03;;;;;;;13.63;5.97;;;14.70;99.90;;;;;;5005037;28;20295;-51
2021/07/01 03:29:31;;;;;;;11.23;6.17;;;14.70;99.90;;;;;;5005338;28;20232;-51
2021/07/01 03:31:58;;;;;;;18.93;5.93;;;14.80;99.90;;;;;;5004119;28;20282;-51
2021/07/01 03:34:25;;;;;;;16.10;6.90;;;14.90;99.90;;;;;;5003783;28;20332;-50
2021/07/01 03:36:51;;;;;;;11.53;5.83;;;14.80;99.90;;;;;;5003544;28;20929;-51
2021/07/01 03:39:18;;;;;;;15.43;6.30;;;14.80;99.90;;;;;;5003344;28;20289;-51
2021/07/01 03:41:45;;;;;;;11.87;6.53;;;14.60;99.90;;;;;;5001519;28;21608;-51
2021/07/01 03:44:13;;;;;;;13.10;6.17;;;14.60;99.90;;;;;;5006630;28;20353;-50
2021/07/01 03:46:41;;;;;;;12.57;6.27;;;14.50;99.90;;;;;;5006110;28;20238;-51
2021/07/01 03:49:08;;;;;;;16.10;6.87;;;14.60;99.90;;;;;;5002918;28;20688;-51
2021/07/01 03:51:35;;;;;;;12.63;6.40;;;14.40;99.90;;;;;;5005775;28;20647;-51
2021/07/01 03:54:04;;;;;;;14.83;6.43;;;14.40;99.90;;;;;;5003880;28;20194;-51
2021/07/01 03:56:41;;;;;;;12.77;6.73;;;14.60;99.90;;;;;;5007010;28;20381;-51
2021/07/01 03:59:12;;;;;;;11.97;7.03;;;14.60;99.90;;;;;;5006091;28;20197;-51
2021/07/01 04:01:40;;;;;;;12.77;5.90;;;14.80;99.90;;;;;;5005204;28;20283;-50
2021/07/01 04:04:07;;;;;;;11.30;5.60;;;14.70;99.90;;;;;;5004200;28;20289;-51
2021/07/01 04:06:35;;;;;;;18.70;6.57;;;14.80;99.90;;;;;;5007526;28;20307;-51
2021/07/01 04:09:04;;;;;;;10.23;5.93;;;14.70;99.90;;;;;;5002266;28;20335;-51
2021/07/01 04:11:30;;;;;;;15.03;5.87;;;14.70;99.90;;;;;;5005018;28;21965;-51
2021/07/01 04:13:57;;;;;;;12.80;5.83;;;14.60;99.90;;;;;;5002925;28;20291;-51
2021/07/01 04:16:24;;;;;;;13.17;6.20;;;14.50;99.90;;;;;;5004572;28;20295;-51
2021/07/01 04:18:51;;;;;;;14.20;5.93;;;14.40;99.90;;;;;;5003573;28;20232;-50
2021/07/01 04:21:19;;;;;;;14.53;6.60;;;14.50;99.90;;;;;;5004426;28;20220;-50
2021/07/01 04:23:46;;;;;;;12.17;5.83;;;14.40;99.90;;;;;;5004384;28;20286;-51
2021/07/01 04:26:13;;;;;;;14.07;7.00;;;14.40;99.90;;;;;;5004316;28;20205;-51
2021/07/01 04:28:43;;;;;;;14.40;6.70;;;14.50;99.90;;;;;;5003447;28;20332;-51
2021/07/01 04:31:09;;;;;;;13.07;6.53;;;14.50;99.90;;;;;;5004638;28;20240;-51
2021/07/01 04:33:37;;;;;;;17.20;6.43;;;14.40;99.90;;;;;;5002169;28;20310;-52
2021/07/01 04:36:03;;;;;;;13.00;6.93;;;14.50;99.90;;;;;;5002363;28;20553;-50
2021/07/01 04:38:30;;;;;;;12.93;7.10;;;14.60;99.90;;;;;;5004206;28;20300;-50
2021/07/01 04:40:57;;;;;;;9.40;6.27;;;14.50;99.90;;;;;;5002669;28;20262;-51
2021/07/01 04:43:24;;;;;;;13.80;7.30;;;14.50;99.90;;;;;;5001373;28;20262;-51
2021/07/01 04:45:51;;;;;;;9.33;6.27;;;14.60;99.90;;;;;;4999965;28;20330;-51
2021/07/01 04:48:18;;;;;;;19.30;7.10;;;14.60;99.90;;;;;;5003640;28;20650;-51
2021/07/01 04:50:45;;;;;;;13.63;6.60;;;14.70;99.90;;;;;;5002934;28;20250;-50
2021/07/01 04:53:11;;;;;;;13.43;6.40;;;14.70;99.90;;;;;;5000118;28;20666;-50
2021/07/01 04:55:38;;;;;;;15.10;6.67;;;14.70;99.90;;;;;;5001750;28;20321;-51
2021/07/01 04:58:05;;;;;;;9.63;6.07;;;14.70;99.90;;;;;;5003305;28;20238;-51
2021/07/01 05:00:35;;;;;;;10.70;6.17;;;14.60;99.90;;;;;;5001638;28;20520;-51
2021/07/01 05:03:03;;;;;;;14.43;6.10;;;14.70;99.90;;;;;;5002009;28;20195;-51
2021/07/01 05:05:30;;;;;;;9.90;6.00;;;14.60;99.90;;;;;;5004065;28;20300;-51
2021/07/01 05:07:56;;;;;;;12.20;6.37;;;14.30;99.90;;;;;;5001396;28;20307;-51
2021/07/01 05:10:23;;;;;;;13.97;6.70;;;14.40;99.90;;;;;;5001750;28;20654;-51
2021/07/01 05:12:51;;;;;;;12.23;6.03;;;14.30;99.90;;;;;;5002297;28;20692;-50
2021/07/01 05:15:18;;;;;;;15.30;5.47;;;14.20;99.90;;;;;;5005779;28;20202;-50
2021/07/01 05:17:44;;;;;;;11.47;5.53;;;14.30;99.90;;;;;;4999041;28;20271;-51
2021/07/01 05:20:12;;;;;;;14.50;5.97;;;14.40;99.90;;;;;;5004509;28;20288;-50
2021/07/01 05:22:38;;;;;;;16.57;6.03;;;14.40;99.90;;;;;;5002371;28;20200;-51
2021/07/01 05:25:06;;;;;;;10.87;6.33;;;14.30;99.90;;;;;;5003576;28;20794;-50
2021/07/01 05:27:32;;;;;;;12.47;6.10;;;14.40;99.90;;;;;;5002993;28;20244;-50
2021/07/01 05:30:00;;;;;;;11.97;5.93;;;14.50;99.90;;;;;;5001552;28;20204;-51
2021/07/01 05:32:30;;;;;;;11.43;5.80;;;14.50;99.90;;;;;;5001501;28;20318;-51
2021/07/01 05:34:57;;;;;;;13.77;5.93;;;14.30;99.90;;;;;;5005213;28;20219;-51
2021/07/01 05:37:24;;;;;;;8.80;5.57;;;14.30;99.90;;;;;;5002307;28;20428;-51
2021/07/01 05:39:51;;;;;;;11.63;5.80;;;14.20;99.90;;;;;;5002386;28;20299;-51
2021/07/01 05:42:18;;;;;;;9.37;5.80;;;14.20;99.90;;;;;;5005664;28;20209;-51
2021/07/01 05:44:45;;;;;;;12.53;5.70;;;14.20;99.90;;;;;;5005184;28;20267;-51
2021/07/01 05:47:11;;;;;;;11.20;6.20;;;14.30;99.90;;;;;;5002003;28;20249;-50
2021/07/01 05:49:39;;;;;;;11.73;5.47;;;14.30;99.90;;;;;;5007897;28;20212;-50
2021/07/01 05:52:07;;;;;;;10.63;5.83;;;14.20;99.90;;;;;;5006072;28;20195;-51
2021/07/01 05:54:38;;;;;;;10.43;6.13;;;14.20;99.90;;;;;;5005059;28;20622;-51
2021/07/01 05:57:05;;;;;;;12.47;6.30;;;14.00;99.90;;;;;;5007005;28;20201;-51
2021/07/01 05:59:32;;;;;;;10.67;5.50;;;14.10;99.90;;;;;;5008212;28;20244;-50
2021/07/01 06:01:59;;;;;;;13.03;5.93;;;14.20;99.90;;;;;;5004072;28;20236;-50
2021/07/01 06:04:26;;;;;;;12.77;6.00;;;14.30;99.90;;;;;;5008074;28;20290;-51
2021/07/01 06:06:54;;;;;;;13.43;5.53;;;14.20;99.90;;;;;;5005185;28;20230;-51
2021/07/01 06:09:26;;;;;;;8.83;5.80;;;14.20;99.90;;;;;;5005489;28;20235;-51
2021/07/01 06:11:55;;;;;;;15.00;6.27;;;14.20;99.90;;;;;;5003866;28;20237;-50
2021/07/01 06:14:24;;;;;;;8.00;4.90;;;14.10;99.90;;;;;;5002065;28;20208;-50
2021/07/01 06:16:53;;;;;;;10.67;5.73;;;14.20;99.90;;;;;;5005720;28;20635;-50
2021/07/01 06:19:20;;;;;;;12.73;5.30;;;14.20;99.90;;;;;;5005643;28;20430;-50
2021/07/01 06:21:49;;;;;;;14.30;5.27;;;14.20;99.90;;;;;;5016335;28;20285;-50
2021/07/01 06:24:17;;;;;;;11.57;5.77;;;14.20;99.90;;;;;;5017304;28;20234;-50
2021/07/01 06:26:46;;;;;;;11.53;5.23;;;14.30;99.90;;;;;;5000662;28;20303;-50
2021/07/01 06:29:14;;;;;;;10.13;4.87;;;14.30;99.90;;;;;;5001058;28;20254;-50
2021/07/01 06:31:41;;;;;;;13.73;5.73;;;14.40;99.90;;;;;;4997108;28;20236;-50
2021/07/01 06:34:08;;;;;;;14.13;5.90;;;14.20;99.90;;;;;;5004069;28;20327;-50
2021/07/01 06:36:38;;;;;;;11.67;5.07;;;14.10;99.90;;;;;;5004156;28;20199;-51
2021/07/01 06:39:06;;;;;;;13.50;5.93;;;14.20;99.90;;;;;;5006462;28;20244;-50
2021/07/01 06:41:35;;;;;;;11.83;5.00;;;14.30;99.90;;;;;;5005879;28;20396;-50
2021/07/01 06:44:05;;;;;;;12.67;5.13;;;14.30;99.90;;;;;;5003863;28;20301;-51
2021/07/01 06:46:33;;;;;;;9.93;5.23;;;14.20;99.90;;;;;;5006218;28;20258;-51
2021/07/01 06:49:01;;;;;;;13.27;5.47;;;14.20;99.90;;;;;;5002477;28;20211;-51
2021/07/01 06:51:37;;;;;;;12.77;5.50;;;14.30;99.90;;;;;;5001198;28;20863;-51
2021/07/01 06:54:05;;;;;;;13.17;5.23;;;14.20;99.90;;;;;;5005977;28;20199;-51
2021/07/01 06:56:39;;;;;;;7.80;4.63;;;14.30;99.90;;;;;;5006017;28;20245;-51
2021/07/01 06:59:09;;;;;;;11.27;4.97;;;14.40;99.90;;;;;;5004794;28;20202;-50
2021/07/01 07:01:37;;;;;;;9.93;6.00;;;14.50;99.90;;;;;;5002670;28;20289;-50
2021/07/01 07:04:19;;;;;;;13.77;5.57;;;14.50;99.90;;;;;;5002282;28;20730;-50
2021/07/01 07:06:46;;;;;;;10.80;5.50;;;14.50;99.90;;;;;;5005995;28;20219;-52
2021/07/01 07:09:14;;;;;;;8.43;4.97;;;14.50;99.90;;;;;;5001430;28;20587;-51
2021/07/01 07:11:42;;;;;;;14.83;4.50;;;14.60;99.90;;;;;;5004427;28;20651;-52
2021/07/01 07:14:11;;;;;;;10.63;5.63;;;14.50;99.90;;;;;;5001503;28;20205;-51
2021/07/01 07:16:41;;;;;;;11.80;5.10;;;14.50;99.90;;;;;;5001588;28;20203;-51
2021/07/01 07:19:10;;;;;;;10.27;5.20;;;14.50;99.90;;;;;;5007290;28;20219;-51
2021/07/01 07:21:45;;;;;;;9.77;4.80;;;14.60;99.90;;;;;;5003952;28;20243;-51
2021/07/01 07:24:16;;;;;;;9.03;4.90;;;14.70;99.90;;;;;;5006768;28;20653;-52
2021/07/01 07:26:53;;;;;;;9.67;5.20;;;14.50;99.90;;;;;;5004417;28;20249;-51
2021/07/01 07:29:32;;;;;;;10.20;4.97;;;14.70;99.90;;;;;;5003019;28;20364;-51
2021/07/01 07:32:00;;;;;;;13.53;5.13;;;14.70;99.90;;;;;;4989594;28;20670;-51
2021/07/01 07:34:29;;;;;;;9.93;4.47;;;14.70;99.90;;;;;;4998087;28;20594;-52
2021/07/01 07:36:56;;;;;;;10.30;3.97;;;14.80;99.90;;;;;;4995767;28;21574;-51
2021/07/01 07:39:24;;;;;;;8.40;3.80;;;14.90;99.90;;;;;;5006447;28;20672;-51
2021/07/01 07:41:52;;;;;;;6.13;3.50;;;14.90;99.90;;;;;;4989304;28;20227;-50
2021/07/01 07:44:19;;;;;;;5.80;3.10;;;15.00;99.90;;;;;;5006958;28;20253;-50
2021/07/01 07:46:48;;;;;;;4.97;3.23;;;15.00;99.90;;;;;;5005433;28;20210;-51
2021/07/01 07:49:15;;;;;;;6.10;2.97;;;15.30;99.90;;;;;;5005022;28;20218;-51
2021/07/01 07:51:47;;;;;;;4.77;3.10;;;15.20;99.90;;;;;;5006021;28;20286;-51
2021/07/01 07:54:15;;;;;;;8.20;3.27;;;15.10;99.90;;;;;;4983865;28;20294;-50
2021/07/01 07:56:48;;;;;;;6.23;4.13;;;15.10;99.90;;;;;;4993349;28;20296;-50
2021/07/01 07:59:20;;;;;;;7.73;4.27;;;14.80;99.90;;;;;;4993965;28;20263;-51
2021/07/01 08:01:50;;;;;;;6.53;3.30;;;14.90;99.90;;;;;;4993954;28;20371;-51
2021/07/01 08:04:17;;;;;;;6.67;3.50;;;15.00;99.90;;;;;;4990873;28;20241;-51
2021/07/01 08:06:47;;;;;;;10.50;3.33;;;14.90;99.90;;;;;;4993689;28;20541;-50
2021/07/01 08:09:15;;;;;;;6.63;3.20;;;15.10;99.90;;;;;;4990339;28;20215;-50
2021/07/01 08:11:42;;;;;;;6.53;3.30;;;15.10;99.90;;;;;;4996603;28;20746;-50
2021/07/01 08:14:13;;;;;;;6.47;3.47;;;15.10;99.90;;;;;;4991604;28;20247;-50
2021/07/01 08:16:44;;;;;;;9.40;4.00;;;15.20;99.90;;;;;;4991417;28;20654;-50
2021/07/01 08:19:11;;;;;;;8.67;3.87;;;15.10;99.90;;;;;;4991462;28;20275;-50
2021/07/01 08:21:38;;;;;;;8.97;4.50;;;15.10;99.90;;;;;;4993731;28;20307;-51
2021/07/01 08:24:06;;;;;;;13.70;5.00;;;15.10;99.90;;;;;;4991955;28;20309;-51
2021/07/01 08:26:33;;;;;;;9.73;3.73;;;15.30;99.90;;;;;;4997175;28;20309;-50
2021/07/01 08:29:00;;;;;;;12.07;4.50;;;15.30;99.90;;;;;;4993113;28;20213;-51
2021/07/01 08:31:29;;;;;;;9.27;4.00;;;15.00;99.90;;;;;;4997252;28;20852;-50
2021/07/01 08:33:58;;;;;;;9.73;3.30;;;15.10;99.90;;;;;;4989559;28;20266;-51
2021/07/01 08:36:25;;;;;;;7.10;3.97;;;15.10;99.90;;;;;;4990679;28;20299;-51
2021/07/01 08:38:55;;;;;;;7.77;3.47;;;15.10;99.90;;;;;;4993202;28;20661;-51
2021/07/01 08:41:24;;;;;;;9.30;4.27;;;15.00;99.90;;;;;;4993431;28;20255;-51
2021/07/01 08:43:55;;;;;;;12.43;3.67;;;15.00;99.90;;;;;;4989746;28;20303;-51
2021/07/01 08:46:28;;;;;;;8.50;3.93;;;15.10;99.90;;;;;;4992926;28;20326;-51
2021/07/01 08:49:06;;;;;;;10.93;4.07;;;14.90;99.90;;;;;;4991974;28;20309;-51
2021/07/01 08:51:43;;;;;;;6.37;4.07;;;14.90;99.90;;;;;;4996323;28;20288;-51
2021/07/01 08:54:14;;;;;;;7.03;4.50;;;15.10;99.90;;;;;;4995293;28;20224;-51
2021/07/01 08:56:42;;;;;;;10.23;4.53;;;15.00;99.90;;;;;;4998338;28;20296;-51
2021/07/01 08:59:11;;;;;;;12.77;4.90;;;15.10;99.90;;;;;;4995746;28;20350;-50
2021/07/01 09:01:41;;;;;;;8.97;4.67;;;15.10;99.90;;;;;;4995228;28;20307;-50
2021/07/01 09:04:13;;;;;;;11.83;4.50;;;15.00;99.90;;;;;;4996926;28;20211;-50
2021/07/01 09:06:40;;;;;;;12.30;4.57;;;15.10;99.90;;;;;;4993196;28;20232;-53
2021/07/01 09:09:10;;;;;;;8.07;4.20;;;15.10;99.90;;;;;;4994749;28;20549;-50
2021/07/01 09:11:41;;;;;;;9.63;5.10;;;15.20;99.90;;;;;;4997561;28;20207;-50
2021/07/01 09:14:10;;;;;;;8.90;4.50;;;15.30;99.90;;;;;;4996637;28;20233;-51
2021/07/01 09:16:38;;;;;;;12.03;5.23;;;15.20;99.90;;;;;;4996857;28;20237;-50
2021/07/01 09:19:06;;;;;;;10.47;4.30;;;15.00;99.90;;;;;;5000614;28;20215;-51
2021/07/01 09:21:33;;;;;;;11.47;4.50;;;15.10;99.90;;;;;;5001392;28;20307;-51
2021/07/01 09:24:04;;;;;;;10.27;5.07;;;15.10;99.90;;;;;;4999695;28;20204;-51
2021/07/01 09:26:31;;;;;;;10.83;5.13;;;14.90;99.90;;;;;;4999310;28;20252;-51
2021/07/01 09:28:58;;;;;;;9.00;4.50;;;15.10;99.90;;;;;;4998633;28;20288;-51
2021/07/01 09:31:26;;;;;;;11.17;4.37;;;15.00;99.90;;;;;;4997464;28;20239;-51
2021/07/01 09:33:54;;;;;;;6.83;4.03;;;14.90;99.90;;;;;;4997756;28;20480;-51
2021/07/01 09:36:24;;;;;;;8.20;4.70;;;14.90;99.90;;;;;;4997383;28;20265;-51
2021/07/01 09:38:53;;;;;;;10.03;5.20;;;15.00;99.90;;;;;;5000308;28;20219;-51
2021/07/01 09:41:24;;;;;;;11.10;4.17;;;15.00;99.90;;;;;;4999571;28;20234;-50
2021/07/01 09:43:51;;;;;;;10.57;5.37;;;15.00;99.90;;;;;;4999686;28;20821;-51
2021/07/01 09:46:23;;;;;;;8.83;5.07;;;15.20;99.90;;;;;;5002328;28;20255;-51
2021/07/01 09:48:52;;;;;;;14.47;5.20;;;15.20;99.90;;;;;;4996739;28;20724;-51
2021/07/01 09:51:20;;;;;;;13.80;6.07;;;15.20;99.90;;;;;;5003014;28;20289;-51
2021/07/01 09:53:50;;;;;;;17.90;5.40;;;15.20;99.90;;;;;;4995471;28;20606;-50
2021/07/01 09:56:36;;;;;;;9.60;5.30;;;15.20;99.90;;;;;;4999792;28;20712;-50
2021/07/01 09:59:10;;;;;;;17.47;5.67;;;15.30;99.90;;;;;;4996419;28;20235;-51
2021/07/01 10:01:40;;;;;;;8.57;5.30;;;15.50;99.90;;;;;;4998561;28;20293;-51
2021/07/01 10:04:08;;;;;;;15.83;5.53;;;15.40;99.90;;;;;;4993321;28;20206;-51
2021/07/01 10:06:35;;;;;;;9.97;5.60;;;15.40;99.90;;;;;;4993737;28;20668;-51
2021/07/01 10:09:05;;;;;;;13.77;5.50;;;15.40;99.90;;;;;;4994883;28;20218;-50
2021/07/01 10:11:34;;;;;;;18.00;6.00;;;15.60;99.90;;;;;;4995571;28;20246;-51
2021/07/01 10:14:06;;;;;;;14.37;6.10;;;15.50;99.90;;;;;;4997662;28;20201;-53
2021/07/01 10:16:34;;;;;;;13.20;6.07;;;15.20;99.90;;;;;;4995227;28;20304;-52
2021/07/01 10:19:03;;;;;;;14.13;5.27;;;15.20;99.90;;;;;;4994005;28;20761;-51
2021/07/01 10:21:32;;;;;;;11.43;6.00;;;15.00;99.90;;;;;;4996791;28;20217;-51
2021/07/01 10:24:10;;;;;;;15.13;6.60;;;15.20;99.90;;;;;;4997132;28;20276;-51
2021/07/01 10:26:43;;;;;;;12.00;6.20;;;15.20;99.90;;;;;;5002551;28;20218;-51
2021/07/01 10:29:11;;;;;;;19.80;6.40;;;15.10;99.90;;;;;;4995560;28;20719;-51
2021/07/01 10:31:56;;;;;;;15.53;5.53;;;15.10;99.90;;;;;;4994745;28;20312;-52
2021/07/01 10:34:29;;;;;;;12.33;6.13;;;15.10;99.90;;;;;;4993880;28;20204;-52
2021/07/01 10:37:19;;;;;;;15.47;5.87;;;15.00;99.90;;;;;;4997446;28;20561;-51
2021/07/01 10:39:48;;;;;;;10.80;6.23;;;15.00;99.90;;;;;;4998030;28;20585;-51
2021/07/01 10:42:16;;;;;;;10.60;5.20;;;15.10;99.90;;;;;;4998270;28;20211;-50
2021/07/01 10:44:44;;;;;;;12.03;5.63;;;15.10;99.90;;;;;;4996892;28;20335;-51
2021/07/01 10:47:32;;;;;;;10.27;5.27;;;14.90;99.90;;;;;;4994123;28;20640;-50
2021/07/01 10:50:00;;;;;;;9.57;5.10;;;15.00;99.90;;;;;;4989675;28;20384;-50
2021/07/01 10:52:35;;;;;;;11.60;5.50;;;15.20;99.90;;;;;;4991643;28;20228;-50
2021/07/01 10:55:04;;;;;;;11.67;5.10;;;15.40;99.90;;;;;;4990019;28;20204;-50
2021/07/01 10:57:56;;;;;;;10.37;4.90;;;15.30;99.90;;;;;;4991015;28;20213;-50
2021/07/01 11:00:41;;;;;;;12.37;4.60;;;15.30;99.90;;;;;;4991617;28;20838;-51
2021/07/01 11:03:30;;;;;;;10.97;5.03;;;15.30;99.90;;;;;;4988044;28;20228;-51
2021/07/01 11:06:00;;;;;;;9.80;5.00;;;15.40;99.90;;;;;;4992907;28;21416;-50
2021/07/01 11:08:28;;;;;;;12.83;5.63;;;15.40;99.90;;;;;;4991558;28;20621;-50
2021/07/01 11:10:56;;;;;;;8.30;4.83;;;15.30;99.90;;;;;;4991001;28;20305;-50
2021/07/01 11:13:56;;;;;;;12.20;5.30;;;15.20;99.90;;;;;;4991042;28;20203;-50
2021/07/01 11:16:40;;;;;;;10.23;4.57;;;15.40;99.90;;;;;;4989205;28;20288;-50
2021/07/01 11:19:16;;;;;;;9.47;5.17;;;15.40;99.90;;;;;;4991066;28;20264;-50
2021/07/01 11:21:48;;;;;;;9.93;4.57;;;15.50;99.90;;;;;;5005563;28;20211;-51
2021/07/01 11:24:16;;;;;;;10.00;4.77;;;15.40;99.90;;;;;;4990957;28;20297;-51
2021/07/01 11:26:49;;;;;;;13.87;5.00;;;15.50;99.90;;;;;;4991733;28;20664;-50
2021/07/01 11:29:32;;;;;;;10.43;4.90;;;15.50;99.90;;;;;;4989037;28;21651;-50
2021/07/01 11:32:00;;;;;;;13.57;5.40;;;15.50;99.90;;;;;;4986752;28;20296;-51
2021/07/01 11:34:39;;;;;;;17.03;5.23;;;15.60;99.90;;;;;;4993550;28;20280;-52
2021/07/01 11:37:06;;;;;;;10.63;4.70;;;15.40;99.90;;;;;;4992564;28;20291;-51
2021/07/01 11:39:34;;;;;;;12.93;5.80;;;15.50;99.90;;;;;;4994825;28;20309;-50
2021/07/01 11:42:03;;;;;;;11.37;5.43;;;15.50;99.90;;;;;;4991924;28;20315;-51
2021/07/01 11:44:36;;;;;;;16.50;4.80;;;15.40;99.90;;;;;;4994355;28;20288;-51
2021/07/01 11:47:04;;;;;;;11.53;5.00;;;15.50;99.90;;;;;;4990069;28;20299;-51
2021/07/01 11:49:33;;;;;;;8.33;5.23;;;15.40;99.90;;;;;;4991721;28;21056;-49
2021/07/01 11:52:00;;;;;;;10.37;4.53;;;15.30;99.90;;;;;;4992375;28;20293;-49
2021/07/01 11:54:28;;;;;;;17.43;4.70;;;15.40;99.90;;;;;;4994256;28;20197;-50
2021/07/01 11:56:58;;;;;;;12.90;4.80;;;15.40;99.90;;;;;;4992765;28;20291;-51
2021/07/01 11:59:31;;;;;;;9.60;4.73;;;15.50;99.90;;;;;;4993401;28;20319;-50
2021/07/01 12:02:00;;;;;;;7.47;4.70;;;15.40;99.90;;;;;;4992161;28;20296;-51
2021/07/01 12:04:36;;;;;;;9.00;5.50;;;15.40;99.90;;;;;;4994741;28;20220;-50
2021/07/01 12:07:28;;;;;;;9.40;5.67;;;15.30;99.90;;;;;;4993792;28;20305;-51
2021/07/01 12:09:56;;;;;;;14.70;4.93;;;15.40;99.90;;;;;;4996488;28;20209;-50
2021/07/01 12:12:25;;;;;;;11.23;5.07;;;15.40;99.90;;;;;;4995860;28;20284;-51
2021/07/01 12:15:07;;;;;;;11.50;5.13;;;15.30;99.90;;;;;;4992930;28;20695;-51
2021/07/01 12:17:57;;;;;;;17.70;5.90;;;15.40;99.90;;;;;;5007597;28;20202;-51
2021/07/01 12:20:41;;;;;;;11.77;5.37;;;15.50;99.90;;;;;;4994941;28;20208;-51
2021/07/01 12:23:11;;;;;;;11.20;5.83;;;15.50;99.90;;;;;;4994858;28;20373;-50
2021/07/01 12:25:39;;;;;;;18.23;6.33;;;15.50;99.90;;;;;;4995096;28;20203;-50
2021/07/01 12:28:06;;;;;;;13.97;5.10;;;15.50;99.90;;;;;;4992410;28;20299;-51
2021/07/01 12:30:56;;;;;;;14.53;5.30;;;15.60;99.90;;;;;;4993225;28;20337;-51
2021/07/01 12:33:55;;;;;;;9.90;4.70;;;15.60;99.90;;;;;;4993246;28;20795;-50
2021/07/01 12:36:33;;;;;;;10.00;5.00;;;15.40;99.90;;;;;;4994439;28;20209;-50
2021/07/01 12:39:04;;;;;;;12.20;5.00;;;15.50;99.90;;;;;;4987215;28;20296;-50
2021/07/01 12:41:33;;;;;;;12.87;5.30;;;15.10;99.90;;;;;;4984335;28;20301;-51
2021/07/01 12:44:14;;;;;;;8.30;4.57;;;15.10;99.90;;;;;;4986668;28;20221;-50
2021/07/01 12:46:44;;;;;;;14.17;5.03;;;15.10;99.90;;;;;;4989851;28;20794;-51
2021/07/01 12:51:44;;;;;;;11.93;5.53;;;15.10;99.90;;;;;;4990117;28;20201;-51
2021/07/01 12:54:24;;;;;;;10.13;5.17;;;15.10;99.90;;;;;;4990183;28;20211;-51
2021/07/01 12:56:51;;;;;;;15.00;4.83;;;15.30;99.90;;;;;;4990797;28;20733;-51